Time;durP1;ratioP1;P1;durP2;ratioP2;P2;SDS_P1;SDS_P2;PMS_P1;PMS_P2;Temp;Humidity;BMP_temperature;BMP_pressure;BME280_temperature;BME280_humidity;BME280_pressure;Samples;Min_cycle;Max_cycle;Signal;HPM_P1;HPM_P2
2021/06/26 00:00:47;;;;;;;6.80;6.32;;;;;;;;;;5054574;28;20419;-70
2021/06/26 00:03:13;;;;;;;6.65;6.15;;;;;;;;;;5054611;28;20354;-70
2021/06/26 00:05:38;;;;;;;7.70;7.00;;;;;;;;;;5054646;28;20027;-70
2021/06/26 00:08:04;;;;;;;10.75;8.73;;;;;;;;;;5054542;28;20074;-69
2021/06/26 00:10:30;;;;;;;9.20;8.40;;;;;;;;;;5054247;28;20021;-70
2021/06/26 00:12:55;;;;;;;9.18;8.43;;;;;;;;;;5053803;28;20427;-69
2021/06/26 00:15:20;;;;;;;11.55;10.25;;;;;;;;;;5036315;28;20043;-70
2021/06/26 00:17:46;;;;;;;10.48;9.55;;;;;;;;;;5054109;28;20028;-69
2021/06/26 00:20:11;;;;;;;9.02;8.25;;;;;;;;;;5054056;28;20029;-70
2021/06/26 00:22:37;;;;;;;8.35;7.65;;;;;;;;;;5054334;28;20052;-70
2021/06/26 00:25:03;;;;;;;6.93;6.43;;;;;;;;;;5052974;28;20392;-70
2021/06/26 00:27:30;;;;;;;7.13;6.63;;;;;;;;;;5054212;28;20484;-69
2021/06/26 00:29:55;;;;;;;6.28;5.78;;;;;;;;;;5052922;28;20036;-69
2021/06/26 00:32:21;;;;;;;6.28;5.93;;;;;;;;;;5053954;28;20373;-70
2021/06/26 00:34:46;;;;;;;6.93;6.43;;;;;;;;;;5053874;28;20025;-70
2021/06/26 00:37:12;;;;;;;7.75;7.05;;;;;;;;;;5053990;28;20024;-69
2021/06/26 00:39:37;;;;;;;7.03;6.43;;;;;;;;;;5052718;28;20033;-69
2021/06/26 00:42:03;;;;;;;8.07;7.38;;;;;;;;;;5054040;28;20075;-69
2021/06/26 00:44:28;;;;;;;7.50;6.95;;;;;;;;;;5054013;28;20033;-69
2021/06/26 00:46:54;;;;;;;7.68;7.10;;;;;;;;;;5053679;28;20021;-69
2021/06/26 00:49:19;;;;;;;7.35;6.68;;;;;;;;;;5053856;28;20435;-69
2021/06/26 00:51:45;;;;;;;8.45;7.65;;;;;;;;;;5052487;28;20484;-70
2021/06/26 00:54:11;;;;;;;7.75;7.18;;;;;;;;;;5052594;28;20029;-70
2021/06/26 00:56:36;;;;;;;7.18;6.47;;;;;;;;;;5053505;28;20060;-70
2021/06/26 00:59:02;;;;;;;6.18;5.63;;;;;;;;;;5053211;28;20032;-70
2021/06/26 01:01:27;;;;;;;5.30;4.97;;;;;;;;;;5053508;28;20037;-70
2021/06/26 01:03:53;;;;;;;5.53;5.20;;;;;;;;;;5053403;28;20057;-70
2021/06/26 01:06:18;;;;;;;5.57;5.07;;;;;;;;;;5052145;28;20021;-70
2021/06/26 01:08:44;;;;;;;6.88;6.38;;;;;;;;;;5052268;28;20037;-70
2021/06/26 01:11:09;;;;;;;6.70;6.15;;;;;;;;;;5053283;28;20066;-70
2021/06/26 01:13:35;;;;;;;7.55;6.85;;;;;;;;;;5053442;28;20354;-70
2021/06/26 01:16:00;;;;;;;8.23;7.53;;;;;;;;;;5053229;28;20079;-69
2021/06/26 01:18:26;;;;;;;6.25;5.85;;;;;;;;;;5051900;28;20171;-69
2021/06/26 01:20:52;;;;;;;5.82;5.18;;;;;;;;;;5053054;28;20051;-70
2021/06/26 01:23:18;;;;;;;5.82;5.43;;;;;;;;;;5053450;28;20411;-70
2021/06/26 01:25:44;;;;;;;6.10;5.65;;;;;;;;;;5051776;28;20369;-69
2021/06/26 01:28:10;;;;;;;6.53;6.13;;;;;;;;;;5052968;28;20028;-69
2021/06/26 01:30:35;;;;;;;6.82;6.32;;;;;;;;;;5051717;28;20048;-69
2021/06/26 01:33:02;;;;;;;5.85;5.47;;;;;;;;;;5052834;28;20029;-69
2021/06/26 01:35:27;;;;;;;6.53;6.05;;;;;;;;;;5052924;28;20113;-69
2021/06/26 01:37:53;;;;;;;5.85;5.50;;;;;;;;;;5053157;28;20053;-69
2021/06/26 01:40:20;;;;;;;6.95;6.32;;;;;;;;;;5053146;28;20123;-69
2021/06/26 01:42:46;;;;;;;6.35;5.95;;;;;;;;;;5051966;28;20484;-71
2021/06/26 01:45:12;;;;;;;6.60;6.15;;;;;;;;;;5051785;28;20022;-72
2021/06/26 01:47:43;;;;;;;7.28;6.60;;;;;;;;;;5051745;28;20120;-72
2021/06/26 01:50:09;;;;;;;6.65;6.15;;;;;;;;;;5052875;28;20484;-72
2021/06/26 01:52:34;;;;;;;7.57;6.97;;;;;;;;;;5052695;28;20029;-72
2021/06/26 01:55:00;;;;;;;5.85;5.40;;;;;;;;;;5051519;28;20037;-69
2021/06/26 01:57:25;;;;;;;5.90;5.50;;;;;;;;;;5052701;28;20017;-69
2021/06/26 01:59:51;;;;;;;5.45;5.15;;;;;;;;;;5052443;28;20033;-69
2021/06/26 02:02:16;;;;;;;5.05;4.80;;;;;;;;;;5052325;28;20112;-69
2021/06/26 02:04:42;;;;;;;6.18;5.78;;;;;;;;;;5052778;28;20107;-69
2021/06/26 02:07:07;;;;;;;5.55;5.18;;;;;;;;;;5051382;28;20028;-70
2021/06/26 02:09:33;;;;;;;6.15;5.55;;;;;;;;;;5052736;28;20025;-69
2021/06/26 02:11:58;;;;;;;6.47;6.07;;;;;;;;;;5051429;28;20040;-69
2021/06/26 02:14:24;;;;;;;7.20;6.70;;;;;;;;;;5051265;28;20429;-69
2021/06/26 02:16:49;;;;;;;8.07;7.53;;;;;;;;;;5051606;28;20013;-69
2021/06/26 02:19:15;;;;;;;7.88;7.18;;;;;;;;;;5056683;28;20075;-69
2021/06/26 02:21:40;;;;;;;8.40;7.55;;;;;;;;;;5056584;28;20028;-69
2021/06/26 02:24:06;;;;;;;8.00;7.20;;;;;;;;;;5056398;28;20064;-69
2021/06/26 02:26:31;;;;;;;7.45;6.85;;;;;;;;;;5056232;28;20028;-69
2021/06/26 02:28:56;;;;;;;6.65;6.15;;;;;;;;;;5056301;28;20040;-69
2021/06/26 02:31:22;;;;;;;6.82;6.13;;;;;;;;;;5054953;28;20017;-69
2021/06/26 02:33:47;;;;;;;6.90;6.45;;;;;;;;;;5056409;28;20059;-70
2021/06/26 02:36:13;;;;;;;9.73;6.25;;;;;;;;;;5056142;28;20057;-70
2021/06/26 02:38:38;;;;;;;7.85;6.55;;;;;;;;;;5056312;28;20021;-70
2021/06/26 02:41:04;;;;;;;6.97;6.50;;;;;;;;;;5056067;28;20028;-70
2021/06/26 02:43:29;;;;;;;10.10;7.10;;;;;;;;;;5055837;28;20040;-70
2021/06/26 02:45:55;;;;;;;8.07;7.38;;;;;;;;;;5055790;28;20531;-70
2021/06/26 02:48:21;;;;;;;7.80;7.07;;;;;;;;;;5055789;28;20053;-69
2021/06/26 02:50:46;;;;;;;7.28;6.57;;;;;;;;;;5054615;28;20067;-69
2021/06/26 02:53:11;;;;;;;8.10;7.40;;;;;;;;;;5055738;28;20128;-69
2021/06/26 02:55:37;;;;;;;8.68;7.60;;;;;;;;;;5055538;28;20028;-69
2021/06/26 02:58:02;;;;;;;7.80;7.13;;;;;;;;;;5055279;28;20025;-69
2021/06/26 03:00:29;;;;;;;9.48;8.45;;;;;;;;;;5037487;28;20041;-69
2021/06/26 03:02:54;;;;;;;8.30;7.70;;;;;;;;;;5054321;28;20052;-69
2021/06/26 03:05:20;;;;;;;9.75;8.57;;;;;;;;;;5055554;28;20028;-69
2021/06/26 03:07:49;;;;;;;8.88;8.13;;;;;;;;;;5055627;28;20029;-69
2021/06/26 03:10:15;;;;;;;10.27;9.15;;;;;;;;;;5055861;28;20071;-69
2021/06/26 03:12:40;;;;;;;12.60;10.13;;;;;;;;;;5055376;28;20029;-69
2021/06/26 03:15:06;;;;;;;10.90;9.80;;;;;;;;;;5055738;28;20373;-69
2021/06/26 03:17:31;;;;;;;13.20;9.05;;;;;;;;;;5055498;28;20025;-69
2021/06/26 03:19:57;;;;;;;10.27;9.23;;;;;;;;;;5055469;28;20035;-69
2021/06/26 03:22:22;;;;;;;9.80;8.45;;;;;;;;;;5055085;28;20025;-68
2021/06/26 03:24:48;;;;;;;11.25;9.55;;;;;;;;;;5055344;28;20476;-69
2021/06/26 03:27:15;;;;;;;13.20;10.27;;;;;;;;;;5053844;28;20037;-69
2021/06/26 03:29:40;;;;;;;13.07;9.98;;;;;;;;;;5054108;28;20025;-69
2021/06/26 03:32:06;;;;;;;10.98;9.27;;;;;;;;;;5054952;28;20055;-69
2021/06/26 03:34:31;;;;;;;9.80;8.50;;;;;;;;;;5054997;28;20503;-69
2021/06/26 03:36:57;;;;;;;9.30;8.35;;;;;;;;;;5054972;28;20035;-69
2021/06/26 03:39:23;;;;;;;10.35;9.25;;;;;;;;;;5055027;28;20019;-69
2021/06/26 03:41:48;;;;;;;11.25;10.15;;;;;;;;;;5053707;28;20037;-69
2021/06/26 03:44:14;;;;;;;10.50;9.63;;;;;;;;;;5054783;28;20538;-69
2021/06/26 03:46:39;;;;;;;12.20;11.00;;;;;;;;;;5054808;28;20479;-69
2021/06/26 03:49:05;;;;;;;14.23;12.45;;;;;;;;;;5053644;28;20017;-69
2021/06/26 03:51:30;;;;;;;13.05;11.80;;;;;;;;;;5053118;28;20072;-69
2021/06/26 03:53:56;;;;;;;14.50;12.63;;;;;;;;;;5054768;28;20461;-69
2021/06/26 03:56:22;;;;;;;19.73;15.98;;;;;;;;;;5053271;28;20152;-69
2021/06/26 03:58:48;;;;;;;20.85;15.40;;;;;;;;;;5054742;28;20021;-68
2021/06/26 04:01:13;;;;;;;20.13;15.38;;;;;;;;;;5053137;28;20045;-68
2021/06/26 04:03:39;;;;;;;21.05;16.73;;;;;;;;;;5053200;28;20384;-69
2021/06/26 04:06:04;;;;;;;20.67;17.15;;;;;;;;;;5054457;28;20120;-69
2021/06/26 04:08:30;;;;;;;20.23;15.50;;;;;;;;;;5054376;28;20357;-69
2021/06/26 04:10:55;;;;;;;19.90;15.82;;;;;;;;;;5054408;28;20087;-69
2021/06/26 04:13:21;;;;;;;20.45;15.77;;;;;;;;;;5052787;28;20029;-70
2021/06/26 04:15:46;;;;;;;18.42;14.68;;;;;;;;;;5054148;28;20029;-70
2021/06/26 04:18:12;;;;;;;20.30;14.95;;;;;;;;;;5052719;28;20017;-70
2021/06/26 04:20:37;;;;;;;19.38;14.93;;;;;;;;;;5052817;28;20039;-70
2021/06/26 04:23:03;;;;;;;20.23;15.05;;;;;;;;;;5054198;28;20540;-69
2021/06/26 04:25:28;;;;;;;19.65;14.50;;;;;;;;;;5053145;28;20473;-69
2021/06/26 04:27:54;;;;;;;20.55;14.93;;;;;;;;;;5054357;28;20024;-69
2021/06/26 04:30:20;;;;;;;17.77;14.27;;;;;;;;;;5054055;28;20029;-69
2021/06/26 04:32:45;;;;;;;17.10;13.63;;;;;;;;;;5054045;28;20066;-69
2021/06/26 04:35:14;;;;;;;18.85;14.07;;;;;;;;;;5052935;28;20346;-69
2021/06/26 04:37:39;;;;;;;18.48;14.07;;;;;;;;;;5053936;28;20356;-69
2021/06/26 04:40:05;;;;;;;22.17;16.15;;;;;;;;;;5053794;28;20032;-69
2021/06/26 04:42:31;;;;;;;23.77;17.27;;;;;;;;;;5053861;28;20213;-69
2021/06/26 04:44:57;;;;;;;26.30;18.58;;;;;;;;;;5053831;28;20111;-69
2021/06/26 04:47:27;;;;;;;26.55;18.15;;;;;;;;;;5068753;28;20542;-68
2021/06/26 04:49:52;;;;;;;25.93;18.80;;;;;;;;;;5052433;28;20067;-69
2021/06/26 04:52:18;;;;;;;28.45;20.30;;;;;;;;;;5053376;28;20275;-69
2021/06/26 04:54:43;;;;;;;25.05;18.65;;;;;;;;;;5053483;28;20029;-69
2021/06/26 04:57:09;;;;;;;28.38;20.75;;;;;;;;;;5053496;28;20017;-69
2021/06/26 04:59:35;;;;;;;25.35;19.08;;;;;;;;;;5053112;28;20037;-69
2021/06/26 05:02:00;;;;;;;28.48;20.00;;;;;;;;;;5053607;28;20488;-65
2021/06/26 05:04:26;;;;;;;30.38;21.10;;;;;;;;;;5053362;28;20480;-66
2021/06/26 05:06:51;;;;;;;33.25;21.92;;;;;;;;;;5053695;28;20079;-66
2021/06/26 05:09:17;;;;;;;23.35;15.80;;;;;;;;;;5053864;28;20036;-65
2021/06/26 05:11:42;;;;;;;29.45;21.08;;;;;;;;;;5053714;28;20384;-65
2021/06/26 05:14:08;;;;;;;33.78;21.88;;;;;;;;;;5053904;28;20089;-65
2021/06/26 05:16:34;;;;;;;28.65;19.65;;;;;;;;;;5053409;28;20103;-65
2021/06/26 05:18:59;;;;;;;30.55;21.98;;;;;;;;;;5051995;28;20055;-65
2021/06/26 05:21:25;;;;;;;27.08;19.88;;;;;;;;;;5053159;28;20550;-65
2021/06/26 05:23:51;;;;;;;25.70;19.17;;;;;;;;;;5052231;28;20033;-65
2021/06/26 05:26:16;;;;;;;24.92;17.98;;;;;;;;;;5052101;28;20053;-65
2021/06/26 05:28:42;;;;;;;26.58;18.13;;;;;;;;;;5053143;28;20112;-65
2021/06/26 05:31:09;;;;;;;27.15;19.77;;;;;;;;;;5051833;28;20079;-65
2021/06/26 05:33:34;;;;;;;20.58;16.02;;;;;;;;;;5052903;28;20436;-65
2021/06/26 05:36:00;;;;;;;18.52;14.80;;;;;;;;;;5068368;28;20063;-65
2021/06/26 05:38:25;;;;;;;19.88;15.63;;;;;;;;;;5053022;28;20074;-68
2021/06/26 05:40:51;;;;;;;20.17;15.93;;;;;;;;;;5052921;28;20018;-67
2021/06/26 05:43:16;;;;;;;23.25;16.55;;;;;;;;;;5052483;28;20025;-68
2021/06/26 05:45:42;;;;;;;18.95;15.15;;;;;;;;;;5052812;28;20025;-65
2021/06/26 05:48:07;;;;;;;21.20;15.52;;;;;;;;;;5052813;28;20071;-65
2021/06/26 05:50:34;;;;;;;25.13;17.63;;;;;;;;;;5052977;28;20021;-64
2021/06/26 05:53:00;;;;;;;21.13;17.08;;;;;;;;;;5055009;28;20029;-69
2021/06/26 05:55:26;;;;;;;23.50;17.48;;;;;;;;;;5072153;28;20044;-69
2021/06/26 05:57:52;;;;;;;25.98;19.00;;;;;;;;;;5056849;28;20086;-69
2021/06/26 06:00:18;;;;;;;22.23;17.02;;;;;;;;;;5056396;28;20072;-69
2021/06/26 06:02:44;;;;;;;19.00;16.25;;;;;;;;;;5055349;28;20033;-69
2021/06/26 06:05:12;;;;;;;16.30;13.25;;;;;;;;;;5056910;28;20400;-69
2021/06/26 06:07:38;;;;;;;18.52;13.98;;;;;;;;;;5056671;28;20035;-69
2021/06/26 06:10:04;;;;;;;20.48;15.82;;;;;;;;;;5055437;28;20104;-69
2021/06/26 06:12:32;;;;;;;19.70;15.60;;;;;;;;;;5056438;28;20079;-70
2021/06/26 06:14:57;;;;;;;15.10;12.45;;;;;;;;;;5056725;28;20096;-69
2021/06/26 06:17:22;;;;;;;18.67;14.63;;;;;;;;;;5056457;28;20052;-69
2021/06/26 06:19:48;;;;;;;17.58;14.13;;;;;;;;;;5056700;28;20025;-65
2021/06/26 06:22:13;;;;;;;16.60;12.32;;;;;;;;;;5056593;28;20029;-65
2021/06/26 06:24:39;;;;;;;15.23;13.30;;;;;;;;;;5056292;28;20536;-66
2021/06/26 06:27:04;;;;;;;15.63;12.60;;;;;;;;;;5056505;28;20040;-69
2021/06/26 06:29:30;;;;;;;14.00;12.10;;;;;;;;;;5056419;28;20025;-69
2021/06/26 06:31:56;;;;;;;13.07;11.63;;;;;;;;;;5055971;28;20033;-69
2021/06/26 06:34:21;;;;;;;13.18;10.90;;;;;;;;;;5056201;28;20473;-69
2021/06/26 06:36:46;;;;;;;14.82;11.13;;;;;;;;;;5054893;28;20032;-69
2021/06/26 06:39:13;;;;;;;11.93;10.65;;;;;;;;;;5054575;28;20017;-69
2021/06/26 06:41:38;;;;;;;14.30;9.88;;;;;;;;;;5055794;28;20070;-69
2021/06/26 06:44:04;;;;;;;14.05;10.75;;;;;;;;;;5054565;28;20005;-61
2021/06/26 06:46:29;;;;;;;11.13;9.95;;;;;;;;;;5056171;28;20053;-59
2021/06/26 06:48:55;;;;;;;12.18;9.73;;;;;;;;;;5055927;28;20017;-59
2021/06/26 06:51:20;;;;;;;10.45;9.45;;;;;;;;;;5056011;28;20027;-60
2021/06/26 06:53:46;;;;;;;10.38;9.27;;;;;;;;;;5054618;28;20021;-59
2021/06/26 06:56:11;;;;;;;9.32;8.50;;;;;;;;;;5050558;28;20107;-60
2021/06/26 06:58:37;;;;;;;12.57;9.75;;;;;;;;;;5052802;28;20071;-60
2021/06/26 07:01:03;;;;;;;12.73;9.07;;;;;;;;;;5055566;28;20040;-59
2021/06/26 07:03:28;;;;;;;11.00;9.35;;;;;;;;;;5054779;28;20036;-60
2021/06/26 07:05:55;;;;;;;10.90;8.60;;;;;;;;;;5055171;28;20099;-59
2021/06/26 07:08:20;;;;;;;10.52;8.85;;;;;;;;;;5055739;28;20036;-60
2021/06/26 07:10:46;;;;;;;10.82;9.73;;;;;;;;;;5055775;28;20033;-60
2021/06/26 07:13:11;;;;;;;12.48;9.60;;;;;;;;;;5055449;28;20074;-60
2021/06/26 07:15:37;;;;;;;11.88;10.25;;;;;;;;;;5055841;28;20343;-60
2021/06/26 07:18:03;;;;;;;12.70;11.40;;;;;;;;;;5055703;28;20102;-59
2021/06/26 07:20:28;;;;;;;13.73;12.07;;;;;;;;;;5054270;28;20025;-60
2021/06/26 07:22:55;;;;;;;11.90;10.65;;;;;;;;;;5055547;28;20122;-59
2021/06/26 07:25:22;;;;;;;13.77;12.25;;;;;;;;;;5055669;28;20419;-60
2021/06/26 07:27:47;;;;;;;12.27;11.07;;;;;;;;;;5055163;28;20036;-60
2021/06/26 07:30:13;;;;;;;14.82;12.30;;;;;;;;;;5053923;28;20028;-60
2021/06/26 07:32:39;;;;;;;14.68;12.35;;;;;;;;;;5055045;28;20052;-60
2021/06/26 07:35:05;;;;;;;14.38;12.57;;;;;;;;;;5055039;28;20033;-59
2021/06/26 07:37:32;;;;;;;12.45;9.45;;;;;;;;;;5055452;28;20100;-60
2021/06/26 07:39:57;;;;;;;17.33;12.38;;;;;;;;;;5055265;28;20204;-60
2021/06/26 07:42:23;;;;;;;14.23;12.02;;;;;;;;;;5054837;28;20021;-60
2021/06/26 07:44:48;;;;;;;17.80;13.70;;;;;;;;;;5054812;28;20053;-59
2021/06/26 07:47:14;;;;;;;16.15;13.90;;;;;;;;;;5054818;28;20032;-59
2021/06/26 07:49:40;;;;;;;17.50;14.18;;;;;;;;;;5054880;28;20033;-61
2021/06/26 07:52:05;;;;;;;18.17;12.70;;;;;;;;;;5054723;28;20507;-60
2021/06/26 07:54:31;;;;;;;15.95;13.57;;;;;;;;;;5054772;28;20029;-60
2021/06/26 07:56:56;;;;;;;16.77;13.98;;;;;;;;;;5053198;28;20380;-60
2021/06/26 07:59:22;;;;;;;15.60;14.00;;;;;;;;;;5052710;28;20083;-61
2021/06/26 08:01:47;;;;;;;15.73;13.45;;;;;;;;;;5054903;28;20354;-61
2021/06/26 08:04:13;;;;;;;16.58;13.32;;;;;;;;;;5054632;28;20025;-60
2021/06/26 08:06:38;;;;;;;17.83;13.60;;;;;;;;;;5053330;28;20553;-60
2021/06/26 08:09:04;;;;;;;18.30;13.43;;;;;;;;;;5054538;28;20017;-60
2021/06/26 08:11:30;;;;;;;19.85;15.18;;;;;;;;;;5054302;28;20025;-61
2021/06/26 08:13:57;;;;;;;16.70;13.90;;;;;;;;;;5054783;28;20104;-60
2021/06/26 08:16:23;;;;;;;16.75;13.80;;;;;;;;;;5054277;28;20025;-61
2021/06/26 08:18:48;;;;;;;17.70;13.25;;;;;;;;;;5054428;28;20676;-61
2021/06/26 08:21:14;;;;;;;16.83;14.15;;;;;;;;;;5054320;28;20047;-61
2021/06/26 08:23:39;;;;;;;19.10;15.30;;;;;;;;;;5053008;28;20020;-60
2021/06/26 08:26:05;;;;;;;22.63;16.30;;;;;;;;;;5053793;28;20031;-60
2021/06/26 08:28:30;;;;;;;18.08;15.63;;;;;;;;;;5054089;28;20078;-60
2021/06/26 08:30:56;;;;;;;18.65;15.50;;;;;;;;;;5054070;28;20032;-60
2021/06/26 08:33:21;;;;;;;18.08;14.48;;;;;;;;;;5052441;28;20036;-60
2021/06/26 08:35:47;;;;;;;20.20;16.88;;;;;;;;;;5053885;28;20025;-61
2021/06/26 08:38:12;;;;;;;19.98;15.82;;;;;;;;;;5054114;28;20330;-61
2021/06/26 08:40:38;;;;;;;19.77;16.60;;;;;;;;;;5053970;28;20028;-60
2021/06/26 08:43:04;;;;;;;18.08;14.32;;;;;;;;;;5053708;28;20017;-60
2021/06/26 08:45:30;;;;;;;18.40;15.57;;;;;;;;;;5053966;28;20057;-60
2021/06/26 08:47:58;;;;;;;19.23;15.00;;;;;;;;;;5052354;28;20090;-60
2021/06/26 08:50:25;;;;;;;17.77;14.45;;;;;;;;;;5053707;28;20111;-60
2021/06/26 08:52:51;;;;;;;17.63;13.90;;;;;;;;;;5053439;28;20028;-60
2021/06/26 08:55:17;;;;;;;17.98;13.73;;;;;;;;;;5053875;28;20028;-60
2021/06/26 08:57:43;;;;;;;15.55;13.15;;;;;;;;;;5053739;28;20595;-60
2021/06/26 09:00:11;;;;;;;13.63;12.15;;;;;;;;;;5052867;28;20109;-61
2021/06/26 09:02:37;;;;;;;14.93;13.13;;;;;;;;;;5053424;28;20021;-61
2021/06/26 09:05:04;;;;;;;16.95;14.50;;;;;;;;;;5053386;28;20048;-61
2021/06/26 09:07:31;;;;;;;36.05;18.60;;;;;;;;;;5053397;28;20057;-61
2021/06/26 09:09:57;;;;;;;104.68;44.05;;;;;;;;;;5053360;28;20520;-60
2021/06/26 09:12:25;;;;;;;235.07;87.60;;;;;;;;;;5053265;28;20029;-61
2021/06/26 09:14:51;;;;;;;203.35;83.75;;;;;;;;;;5053102;28;20439;-60
2021/06/26 09:17:28;;;;;;;255.38;114.60;;;;;;;;;;5053518;28;20025;-61
2021/06/26 09:19:55;;;;;;;184.35;86.95;;;;;;;;;;5051863;28;20024;-60
2021/06/26 09:22:20;;;;;;;181.20;78.50;;;;;;;;;;5052941;28;20021;-60
2021/06/26 09:24:47;;;;;;;165.35;72.63;;;;;;;;;;5053357;28;20551;-59
2021/06/26 09:27:17;;;;;;;101.78;52.60;;;;;;;;;;5052439;28;20480;-59
2021/06/26 09:30:01;;;;;;;54.50;28.23;;;;;;;;;;5053192;28;20397;-60
2021/06/26 09:32:30;;;;;;;32.63;20.08;;;;;;;;;;5053572;28;20090;-60
2021/06/26 09:34:56;;;;;;;16.95;14.35;;;;;;;;;;5053215;28;20362;-60
2021/06/26 09:37:24;;;;;;;14.18;11.63;;;;;;;;;;5053254;28;20017;-60
2021/06/26 09:39:54;;;;;;;12.93;10.82;;;;;;;;;;5053236;28;20078;-60
2021/06/26 09:42:20;;;;;;;;;;;;;;;;;;5053484;28;20041;-60
2021/06/26 09:44:55;;;;;;;10.65;9.30;;;;;;;;;;5053214;28;19911;-60
2021/06/26 09:47:34;;;;;;;13.38;9.52;;;;;;;;;;5053014;28;20178;-60
2021/06/26 09:50:06;;;;;;;10.27;8.85;;;;;;;;;;5051951;28;20134;-60
2021/06/26 09:52:45;;;;;;;9.60;8.55;;;;;;;;;;5052810;28;20028;-60
2021/06/26 09:55:15;;;;;;;8.63;7.82;;;;;;;;;;5052954;28;20040;-61
2021/06/26 09:57:40;;;;;;;13.30;8.65;;;;;;;;;;5052914;28;20092;-60
2021/06/26 10:00:08;;;;;;;9.40;8.45;;;;;;;;;;5052666;28;20037;-61
2021/06/26 10:02:35;;;;;;;9.27;7.85;;;;;;;;;;5051447;28;20568;-61
2021/06/26 10:05:02;;;;;;;7.70;6.90;;;;;;;;;;5052559;28;20100;-61
2021/06/26 10:07:33;;;;;;;6.65;6.03;;;;;;;;;;5052796;28;20044;-60
2021/06/26 10:09:58;;;;;;;;;;;;;;;;;;5052051;28;20530;-60
2021/06/26 10:12:23;;;;;;;7.90;7.20;;;;;;;;;;5052561;28;19952;-60
2021/06/26 10:14:49;;;;;;;10.88;8.25;;;;;;;;;;5053120;28;20048;-60
2021/06/26 10:17:15;;;;;;;8.05;7.07;;;;;;;;;;5052314;28;20369;-61
2021/06/26 10:19:42;;;;;;;6.68;5.32;;;;;;;;;;5052697;28;20384;-61
2021/06/26 10:22:08;;;;;;;8.10;6.90;;;;;;;;;;5052506;28;20052;-61
2021/06/26 10:24:34;;;;;;;7.40;6.63;;;;;;;;;;5052647;28;20025;-60
2021/06/26 10:26:59;;;;;;;10.05;7.35;;;;;;;;;;5052563;28;20380;-61
2021/06/26 10:29:34;;;;;;;6.78;5.53;;;;;;;;;;5051309;28;20499;-61
2021/06/26 10:32:10;;;;;;;8.27;7.00;;;;;;;;;;5052354;28;20029;-61
2021/06/26 10:34:46;;;;;;;7.45;6.75;;;;;;;;;;5052768;28;20029;-61
2021/06/26 10:37:20;;;;;;;6.50;5.45;;;;;;;;;;5052457;28;20026;-60
2021/06/26 10:39:47;;;;;;;6.93;6.25;;;;;;;;;;5054091;28;20025;-61
2021/06/26 10:42:19;;;;;;;6.63;6.03;;;;;;;;;;5071562;28;20021;-61
2021/06/26 10:44:45;;;;;;;6.43;5.45;;;;;;;;;;5055878;28;20039;-60
2021/06/26 10:47:11;;;;;;;6.43;5.82;;;;;;;;;;5055209;28;20104;-60
2021/06/26 10:49:37;;;;;;;5.35;4.88;;;;;;;;;;5056033;28;20028;-61
2021/06/26 10:52:09;;;;;;;8.05;5.22;;;;;;;;;;5056416;28;20079;-61
2021/06/26 10:54:48;;;;;;;5.38;4.85;;;;;;;;;;5055982;28;20052;-60
2021/06/26 10:57:13;;;;;;;54.30;28.98;;;;;;;;;;5055773;28;20523;-61
2021/06/26 10:59:39;;;;;;;9.95;7.60;;;;;;;;;;5055375;28;20045;-60
2021/06/26 11:02:05;;;;;;;6.22;5.70;;;;;;;;;;5056008;28;20027;-60
2021/06/26 11:04:32;;;;;;;5.68;5.10;;;;;;;;;;5054675;28;20037;-61
2021/06/26 11:07:03;;;;;;;8.85;4.22;;;;;;;;;;5055647;28;20037;-61
2021/06/26 11:09:43;;;;;;;6.63;4.63;;;;;;;;;;5055695;28;20473;-60
2021/06/26 11:12:12;;;;;;;10.15;4.40;;;;;;;;;;5055385;28;20045;-60
2021/06/26 11:14:51;;;;;;;11.57;5.05;;;;;;;;;;5055649;28;20052;-60
2021/06/26 11:17:21;;;;;;;6.88;4.35;;;;;;;;;;5055269;28;20031;-60
2021/06/26 11:19:46;;;;;;;5.22;4.70;;;;;;;;;;5055702;28;20024;-61
2021/06/26 11:22:12;;;;;;;20.92;7.60;;;;;;;;;;5055221;28;20094;-61
2021/06/26 11:24:39;;;;;;;7.80;4.97;;;;;;;;;;5055197;28;20598;-61
2021/06/26 11:27:05;;;;;;;4.45;4.15;;;;;;;;;;5055166;28;20032;-61
2021/06/26 11:29:38;;;;;;;23.50;7.57;;;;;;;;;;5054192;28;20492;-61
2021/06/26 11:32:24;;;;;;;10.55;5.50;;;;;;;;;;5055386;28;20024;-61
2021/06/26 11:35:03;;;;;;;5.03;4.72;;;;;;;;;;5053692;28;20040;-61
2021/06/26 11:37:35;;;;;;;5.97;5.47;;;;;;;;;;5053553;28;20032;-56
2021/06/26 11:40:02;;;;;;;10.38;7.55;;;;;;;;;;5055082;28;20028;-61
2021/06/26 11:42:28;;;;;;;8.38;7.57;;;;;;;;;;5053850;28;20025;-61
2021/06/26 11:44:54;;;;;;;7.57;6.65;;;;;;;;;;5055072;28;20040;-61
2021/06/26 11:47:23;;;;;;;7.90;6.15;;;;;;;;;;5055072;28;20058;-61
2021/06/26 11:49:49;;;;;;;7.20;6.60;;;;;;;;;;5054510;28;20033;-60
2021/06/26 11:52:15;;;;;;;10.85;6.60;;;;;;;;;;5053569;28;20357;-61
2021/06/26 11:54:42;;;;;;;9.48;5.63;;;;;;;;;;5055048;28;20025;-60
2021/06/26 11:57:11;;;;;;;9.75;6.65;;;;;;;;;;5054751;28;20021;-64
2021/06/26 11:59:38;;;;;;;8.98;6.68;;;;;;;;;;5054059;28;20554;-64
2021/06/26 12:02:03;;;;;;;10.00;6.80;;;;;;;;;;5053353;28;20035;-64
2021/06/26 12:04:31;;;;;;;9.40;7.53;;;;;;;;;;5054496;28;20024;-64
2021/06/26 12:06:57;;;;;;;7.00;6.30;;;;;;;;;;5054410;28;20021;-64
2021/06/26 12:09:23;;;;;;;12.23;7.65;;;;;;;;;;5054514;28;20037;-64
2021/06/26 12:11:49;;;;;;;10.57;6.47;;;;;;;;;;5054302;28;20059;-64
2021/06/26 12:14:15;;;;;;;17.52;7.95;;;;;;;;;;5053071;28;20052;-64
2021/06/26 12:16:40;;;;;;;16.85;12.18;;;;;;;;;;5054319;28;20021;-64
2021/06/26 12:19:08;;;;;;;9.35;7.28;;;;;;;;;;5054402;28;20384;-64
2021/06/26 12:21:40;;;;;;;11.68;8.02;;;;;;;;;;5069536;28;20025;-64
2021/06/26 12:24:06;;;;;;;9.85;6.68;;;;;;;;;;5036162;28;20031;-64
2021/06/26 12:26:32;;;;;;;8.88;7.45;;;;;;;;;;5053994;28;20021;-64
2021/06/26 12:28:57;;;;;;;10.43;7.40;;;;;;;;;;5053950;28;20476;-63
2021/06/26 12:31:25;;;;;;;8.07;6.93;;;;;;;;;;5053743;28;20032;-64
2021/06/26 12:34:00;;;;;;;13.20;8.50;;;;;;;;;;5054184;28;20029;-64
2021/06/26 12:36:25;;;;;;;8.40;7.32;;;;;;;;;;5054175;28;20029;-64
2021/06/26 12:38:51;;;;;;;11.93;7.55;;;;;;;;;;5054108;28;20024;-63
2021/06/26 12:41:25;;;;;;;7.22;6.53;;;;;;;;;;5053864;28;20052;-64
2021/06/26 12:43:51;;;;;;;7.38;6.70;;;;;;;;;;5053984;28;20125;-62
2021/06/26 12:46:17;;;;;;;7.07;6.47;;;;;;;;;;5053578;28;20488;-61
2021/06/26 12:48:46;;;;;;;8.52;7.22;;;;;;;;;;5053886;28;20025;-61
2021/06/26 12:53:45;;;;;;;6.65;6.07;;;;;;;;;;5053622;28;20121;-62
2021/06/26 12:56:15;;;;;;;17.90;8.98;;;;;;;;;;5053656;28;20052;-62
2021/06/26 12:58:40;;;;;;;;;;;;;;;;;;5052411;28;20394;-62
2021/06/26 13:01:06;;;;;;;6.30;5.75;;;;;;;;;;5053467;28;19921;-61
2021/06/26 13:03:32;;;;;;;6.75;6.18;;;;;;;;;;5053698;28;20115;-61
2021/06/26 13:06:05;;;;;;;7.57;6.65;;;;;;;;;;5052335;28;20467;-61
2021/06/26 13:08:31;;;;;;;6.28;5.78;;;;;;;;;;5053312;28;20438;-61
2021/06/26 13:10:56;;;;;;;7.28;6.57;;;;;;;;;;5068737;28;20111;-62
2021/06/26 13:13:25;;;;;;;8.30;6.25;;;;;;;;;;5053735;28;20025;-62
2021/06/26 13:15:52;;;;;;;7.70;6.82;;;;;;;;;;5052146;28;20365;-62
2021/06/26 13:18:17;;;;;;;6.53;6.03;;;;;;;;;;5053158;28;20047;-61
2021/06/26 13:20:42;;;;;;;7.45;5.75;;;;;;;;;;5053423;28;20445;-61
2021/06/26 13:23:08;;;;;;;6.72;6.22;;;;;;;;;;5053214;28;20033;-61
2021/06/26 13:25:37;;;;;;;5.82;5.38;;;;;;;;;;5053125;28;20546;-61
2021/06/26 13:28:03;;;;;;;6.28;5.60;;;;;;;;;;5051916;28;20455;-61
2021/06/26 13:30:28;;;;;;;7.07;6.30;;;;;;;;;;5053245;28;20033;-61
2021/06/26 13:32:58;;;;;;;7.28;5.75;;;;;;;;;;5053109;28;20033;-61
2021/06/26 13:35:25;;;;;;;6.55;5.88;;;;;;;;;;5052041;28;20059;-61
2021/06/26 13:37:50;;;;;;;6.78;6.00;;;;;;;;;;5053163;28;20017;-61
2021/06/26 13:40:16;;;;;;;6.57;5.78;;;;;;;;;;5051629;28;20105;-61
2021/06/26 13:42:41;;;;;;;5.82;5.40;;;;;;;;;;5052139;28;20491;-62
2021/06/26 13:45:07;;;;;;;6.40;5.65;;;;;;;;;;5052910;28;20072;-61
2021/06/26 13:47:32;;;;;;;27.20;9.05;;;;;;;;;;5068202;28;20021;-61
2021/06/26 13:49:58;;;;;;;7.32;4.97;;;;;;;;;;5051774;28;20041;-61
2021/06/26 13:52:23;;;;;;;5.32;4.93;;;;;;;;;;5034272;28;20121;-61
2021/06/26 13:54:49;;;;;;;6.05;5.03;;;;;;;;;;5051868;28;20464;-61
2021/06/26 13:57:14;;;;;;;8.93;4.97;;;;;;;;;;5051918;28;20142;-61
2021/06/26 13:59:40;;;;;;;5.90;5.40;;;;;;;;;;5051516;28;20091;-61
2021/06/26 14:02:05;;;;;;;8.05;5.32;;;;;;;;;;5051414;28;20052;-61
2021/06/26 14:04:31;;;;;;;6.30;5.30;;;;;;;;;;5050614;28;20107;-61
2021/06/26 14:06:56;;;;;;;11.75;8.30;;;;;;;;;;5051861;28;20108;-61
2021/06/26 14:09:22;;;;;;;5.78;5.25;;;;;;;;;;5052722;28;20411;-61
2021/06/26 14:11:47;;;;;;;5.37;5.00;;;;;;;;;;5052581;28;20499;-61
2021/06/26 14:14:13;;;;;;;4.80;4.40;;;;;;;;;;5054892;28;20029;-61
2021/06/26 14:16:38;;;;;;;4.30;4.00;;;;;;;;;;5055132;28;20025;-61
2021/06/26 14:19:04;;;;;;;4.10;3.80;;;;;;;;;;5056247;28;20506;-61
2021/06/26 14:21:29;;;;;;;4.05;3.78;;;;;;;;;;5055152;28;20353;-61
2021/06/26 14:23:55;;;;;;;5.68;4.45;;;;;;;;;;5054889;28;20112;-61
2021/06/26 14:26:20;;;;;;;5.15;4.18;;;;;;;;;;5056123;28;20021;-61
2021/06/26 14:28:46;;;;;;;4.30;4.00;;;;;;;;;;5056232;28;20032;-61